Terminal Aerodrome Forecast
Issued by NWS

Home | Current Version | Previous Version | Text Only | Print | Product List | Glossary On
Versions: 1 2 3 4 5 6 7 8 9 10 11 12 13 14 15 16 17 18 19 20 21
000
FTUS42 KFFC 191134
TAFPDK
TAF
KPDK 191134Z 1912/2012 00000KT P6SM BKN100
     FM191400 11003KT P6SM SCT025 BKN100
     FM191800 14006KT P6SM BKN025 BKN100
     FM200100 14007KT P6SM -RA OVC015
     FM200600 19007KT P6SM -RA OVC015
     FM201100 21006KT 5SM BR OVC015=

USA.gov is the U.S. government's official web portal to all federal, state and local government web resources and services.